createdAt,value
2023-11-16T05:03:17.606Z,18.40
2023-11-16T05:06:42.947Z,15.68
2023-11-16T05:10:08.470Z,14.73
2023-11-16T05:13:31.156Z,12.55
2023-11-16T05:16:53.280Z,10.55
2023-11-16T05:20:17.550Z,15.40
2023-11-16T05:23:39.709Z,15.50
2023-11-16T05:27:03.761Z,16.67
2023-11-16T05:30:27.803Z,9.25
2023-11-16T05:33:49.830Z,14.77
2023-11-16T05:37:13.855Z,9.10
2023-11-16T05:40:35.966Z,13.05
2023-11-16T05:43:58.096Z,11.43
2023-11-16T05:47:20.305Z,10.82
2023-11-16T05:50:43.914Z,10.63
2023-11-16T05:54:09.497Z,10.23
2023-11-16T05:57:32.797Z,10.30
2023-11-16T06:00:55.164Z,9.60
2023-11-16T06:04:17.349Z,10.32
2023-11-16T06:07:40.166Z,9.23
2023-11-16T06:11:02.193Z,10.20
2023-11-16T06:14:37.223Z,7.35
2023-11-16T06:18:04.480Z,8.45
2023-11-16T06:21:26.723Z,15.10
2023-11-16T06:24:48.709Z,11.20
2023-11-16T06:28:11.457Z,10.82
2023-11-16T06:31:34.349Z,12.73
2023-11-16T06:34:56.584Z,7.35
2023-11-16T06:38:18.629Z,10.00
2023-11-16T06:41:42.153Z,9.25
2023-11-16T06:45:08.755Z,7.72
2023-11-16T06:48:32.227Z,8.05
2023-11-16T06:51:54.964Z,9.38
2023-11-16T06:55:20.057Z,10.70
2023-11-16T06:58:42.151Z,9.20
2023-11-16T07:02:09.347Z,10.35
2023-11-16T07:05:33.944Z,8.90
2023-11-16T07:08:56.139Z,10.43
2023-11-16T07:12:22.737Z,14.82
2023-11-16T07:15:50.094Z,15.93
2023-11-16T07:19:13.696Z,12.18
2023-11-16T07:22:36.793Z,11.90
2023-11-16T07:26:01.364Z,14.45
2023-11-16T07:29:24.954Z,13.75
2023-11-16T07:32:47.052Z,12.50
2023-11-16T07:36:09.846Z,15.15
2023-11-16T07:39:33.173Z,10.70
2023-11-16T07:42:55.564Z,11.05
2023-11-16T07:46:20.494Z,15.45
2023-11-16T07:49:43.868Z,14.68
2023-11-16T07:53:11.140Z,10.05
2023-11-16T07:56:33.513Z,12.30
2023-11-16T08:00:00.952Z,10.60
2023-11-16T08:03:42.449Z,13.27
2023-11-16T08:07:05.351Z,12.68
2023-11-16T08:10:28.597Z,11.02
2023-11-16T08:13:51.365Z,10.07
2023-11-16T08:17:17.604Z,10.88
2023-11-16T08:20:40.829Z,11.88
2023-11-16T08:24:02.846Z,9.32
2023-11-16T08:27:24.904Z,7.10
2023-11-16T08:30:47.482Z,11.23
2023-11-16T08:34:10.254Z,8.15
2023-11-16T08:37:34.895Z,7.38
2023-11-16T08:41:01.426Z,11.52
2023-11-16T08:44:24.356Z,8.82
2023-11-16T08:47:53.301Z,9.95
2023-11-16T08:51:17.423Z,11.32
2023-11-16T08:54:40.033Z,8.40
2023-11-16T08:58:02.115Z,9.65
2023-11-16T09:01:25.308Z,12.65
2023-11-16T09:04:49.363Z,9.52
2023-11-16T09:08:11.946Z,10.77
2023-11-16T09:11:37.661Z,12.05
2023-11-16T09:14:59.661Z,11.65
2023-11-16T09:18:26.539Z,11.57
2023-11-16T09:21:48.692Z,14.25
2023-11-16T09:25:20.270Z,13.30
2023-11-16T09:28:46.783Z,13.00
2023-11-16T09:32:12.401Z,16.98
2023-11-16T09:35:35.518Z,12.98
2023-11-16T09:38:58.840Z,13.90
2023-11-16T09:42:23.900Z,15.38
2023-11-16T09:45:50.170Z,12.75
2023-11-16T09:49:16.394Z,11.38
2023-11-16T09:52:41.119Z,12.27
2023-11-16T09:56:05.861Z,9.15
2023-11-16T09:59:39.095Z,11.75
2023-11-16T10:03:01.741Z,12.40
2023-11-16T10:06:25.299Z,11.90
2023-11-16T10:09:47.641Z,14.52
2023-11-16T10:13:10.017Z,14.52
2023-11-16T10:16:32.311Z,15.75
2023-11-16T10:19:54.393Z,17.55
2023-11-16T10:23:17.163Z,14.20
2023-11-16T10:26:40.828Z,18.02
2023-11-16T10:30:05.450Z,17.42
2023-11-16T10:33:29.834Z,15.85
2023-11-16T10:36:56.399Z,13.20
2023-11-16T10:40:19.673Z,14.85
2023-11-16T10:43:43.448Z,15.48
2023-11-16T10:47:07.471Z,16.83
2023-11-16T10:50:31.496Z,15.20
2023-11-16T10:53:55.371Z,15.38
2023-11-16T10:57:18.340Z,15.98
2023-11-16T11:00:44.981Z,13.82
2023-11-16T11:04:10.087Z,19.83
2023-11-16T11:07:34.990Z,17.83
2023-11-16T11:10:59.550Z,16.65
2023-11-16T11:14:27.363Z,17.02
2023-11-16T11:17:54.418Z,16.70
2023-11-16T11:21:21.526Z,17.23
2023-11-16T11:24:46.807Z,16.00
2023-11-16T11:28:15.403Z,15.43
2023-11-16T11:32:07.174Z,16.90
2023-11-16T11:35:36.247Z,17.00
2023-11-16T11:38:59.828Z,13.60
2023-11-16T11:42:26.367Z,14.48
2023-11-16T11:45:49.048Z,14.93
2023-11-16T11:49:16.663Z,17.75
2023-11-16T11:52:41.481Z,14.25
2023-11-16T11:56:07.814Z,15.93
2023-11-16T11:59:31.891Z,14.60
2023-11-16T12:02:54.387Z,12.48
2023-11-16T12:06:18.097Z,11.35
2023-11-16T12:09:45.460Z,16.23
2023-11-16T12:13:08.894Z,14.75
2023-11-16T12:16:32.126Z,15.18
2023-11-16T12:19:54.939Z,14.55
2023-11-16T12:23:17.868Z,12.43
2023-11-16T12:26:40.839Z,17.45
2023-11-16T12:30:03.145Z,15.48
2023-11-16T12:33:25.351Z,12.85
2023-11-16T12:36:49.844Z,11.38
2023-11-16T12:40:18.620Z,14.07
2023-11-16T12:43:40.745Z,13.70
2023-11-16T12:47:03.560Z,14.95
2023-11-16T12:50:28.381Z,15.95
2023-11-16T12:53:50.416Z,16.88
2023-11-16T12:57:12.500Z,14.52
2023-11-16T13:00:34.607Z,12.57
2023-11-16T13:03:57.192Z,14.10
2023-11-16T13:07:20.199Z,13.02
2023-11-16T13:10:43.235Z,15.93
2023-11-16T13:14:05.461Z,14.05
2023-11-16T13:17:27.588Z,11.73
2023-11-16T13:20:49.736Z,13.68
2023-11-16T13:24:11.774Z,13.88
2023-11-16T13:27:39.073Z,15.18
2023-11-16T13:31:07.999Z,17.88
2023-11-16T13:34:30.196Z,16.83
2023-11-16T13:37:52.232Z,11.32
2023-11-16T13:41:14.767Z,16.50
2023-11-16T13:44:36.936Z,15.77
2023-11-16T13:48:00.071Z,13.57
2023-11-16T13:51:23.716Z,14.75
2023-11-16T13:54:46.697Z,13.65
2023-11-16T13:58:09.922Z,15.73
2023-11-16T14:01:32.188Z,17.55
2023-11-16T14:04:54.735Z,19.73
2023-11-16T14:08:17.285Z,17.85
2023-11-16T14:11:40.458Z,16.30
2023-11-16T14:15:03.337Z,16.02
2023-11-16T14:18:25.782Z,18.58
2023-11-16T14:21:47.875Z,17.27
2023-11-16T14:25:10.526Z,16.40
2023-11-16T14:28:37.016Z,19.45
2023-11-16T14:31:59.666Z,15.48
2023-11-16T14:35:23.470Z,19.27
2023-11-16T14:38:46.193Z,21.13
2023-11-16T14:42:08.734Z,20.20
2023-11-16T14:45:30.768Z,23.00
2023-11-16T14:48:52.744Z,19.63
2023-11-16T14:52:14.770Z,17.65
2023-11-16T14:55:37.117Z,22.90
2023-11-16T14:59:00.010Z,20.42
2023-11-16T15:02:22.018Z,19.13
2023-11-16T15:05:44.250Z,21.52
2023-11-16T15:09:07.180Z,24.67
2023-11-16T15:12:29.269Z,26.85
2023-11-16T15:15:51.363Z,23.40
2023-11-16T15:19:14.825Z,23.45
2023-11-16T15:22:37.193Z,25.60
2023-11-16T15:26:00.599Z,24.30
2023-11-16T15:29:22.667Z,25.60
2023-11-16T15:32:45.145Z,25.98
2023-11-16T15:36:08.127Z,27.05
2023-11-16T15:39:30.802Z,30.30
2023-11-16T15:42:52.858Z,31.58
2023-11-16T15:46:15.974Z,24.00
2023-11-16T15:49:38.242Z,30.15
2023-11-16T15:53:00.567Z,34.92
2023-11-16T15:56:26.244Z,35.22
2023-11-16T15:59:48.254Z,38.95
2023-11-16T16:03:10.361Z,34.10
2023-11-16T16:06:32.560Z,27.67
2023-11-16T16:09:54.611Z,33.15
2023-11-16T16:13:17.152Z,33.55
2023-11-16T16:16:39.337Z,33.28
2023-11-16T16:20:01.518Z,33.47
2023-11-16T16:23:23.565Z,34.70
2023-11-16T16:26:46.152Z,37.25
2023-11-16T16:30:09.041Z,40.10
2023-11-16T16:33:31.296Z,36.67
2023-11-16T16:36:53.452Z,37.67
2023-11-16T16:40:17.648Z,42.67
2023-11-16T16:43:41.102Z,40.90
2023-11-16T16:47:04.589Z,41.53
2023-11-16T16:50:26.920Z,41.92
2023-11-16T16:53:48.910Z,43.65
2023-11-16T16:57:12.185Z,41.45
2023-11-16T17:00:34.218Z,62.30
2023-11-16T17:03:59.670Z,79.85
2023-11-16T17:07:22.508Z,90.35
2023-11-16T17:10:45.216Z,75.32
2023-11-16T17:14:07.700Z,64.85
2023-11-16T17:17:29.798Z,58.15
2023-11-16T17:20:55.519Z,57.70
2023-11-16T17:24:19.346Z,65.28
2023-11-16T17:27:44.289Z,52.80
2023-11-16T17:31:06.969Z,54.45
2023-11-16T17:34:28.985Z,50.25
2023-11-16T17:37:51.138Z,42.53
2023-11-16T17:41:15.710Z,39.00
2023-11-16T17:44:38.513Z,37.20
2023-11-16T17:48:00.655Z,37.03
2023-11-16T17:51:23.270Z,41.13
2023-11-16T17:54:45.422Z,46.30
2023-11-16T17:58:07.482Z,46.60
2023-11-16T18:01:30.087Z,50.85
2023-11-16T18:04:52.292Z,51.08
2023-11-16T18:08:14.340Z,44.80
2023-11-16T18:11:37.384Z,39.58
2023-11-16T18:14:59.398Z,38.45
2023-11-16T18:18:21.711Z,38.30
2023-11-16T18:21:43.937Z,30.98
2023-11-16T18:25:08.615Z,48.70
2023-11-16T18:28:32.969Z,49.28
2023-11-16T18:31:55.007Z,46.35
2023-11-16T18:35:18.821Z,38.33
2023-11-16T18:38:40.807Z,38.08
2023-11-16T18:42:05.248Z,39.35
2023-11-16T18:45:27.347Z,39.85
2023-11-16T18:48:49.556Z,45.05
2023-11-16T18:52:12.660Z,42.13
2023-11-16T18:55:34.856Z,54.80
2023-11-16T18:58:57.618Z,53.25
2023-11-16T19:02:19.735Z,55.92
2023-11-16T19:05:43.001Z,66.47
2023-11-16T19:09:05.288Z,59.03
2023-11-16T19:12:29.383Z,59.83
2023-11-16T19:15:51.464Z,70.80
2023-11-16T19:19:14.650Z,55.03
2023-11-16T19:22:36.903Z,60.17
2023-11-16T19:25:59.664Z,61.22
2023-11-16T19:29:22.421Z,65.40
2023-11-16T19:32:50.004Z,64.25
2023-11-16T19:36:12.377Z,59.97
2023-11-16T19:39:42.805Z,170.63
2023-11-16T19:43:08.689Z,95.70
2023-11-16T19:46:33.036Z,81.97
2023-11-16T19:49:55.301Z,80.22
2023-11-16T19:53:18.829Z,68.82
2023-11-16T19:56:40.828Z,69.10
2023-11-16T20:00:05.329Z,65.35
2023-11-16T20:03:27.521Z,55.53
2023-11-16T20:06:49.704Z,67.20
2023-11-16T20:10:14.029Z,58.60
2023-11-16T20:13:36.326Z,59.95
2023-11-16T20:16:58.584Z,79.00
2023-11-16T20:20:25.673Z,62.80
2023-11-16T20:23:48.245Z,66.53
2023-11-16T20:27:10.284Z,57.55
2023-11-16T20:30:32.822Z,55.03
2023-11-16T20:33:55.166Z,61.80
2023-11-16T20:37:19.074Z,62.58
2023-11-16T20:40:42.730Z,66.15
2023-11-16T20:44:06.561Z,60.58
2023-11-16T20:47:28.732Z,58.00
2023-11-16T20:50:51.090Z,47.60
2023-11-16T20:54:13.436Z,59.47
2023-11-16T20:57:35.726Z,48.38
2023-11-16T21:00:59.068Z,49.60
2023-11-16T21:04:21.595Z,56.28
2023-11-16T21:07:44.524Z,69.10
2023-11-16T21:11:09.068Z,53.28
2023-11-16T21:14:34.008Z,50.80
2023-11-16T21:17:56.346Z,62.45
2023-11-16T21:21:18.317Z,55.65
2023-11-16T21:24:42.191Z,54.53
2023-11-16T21:28:05.326Z,54.17
2023-11-16T21:31:28.151Z,54.28
2023-11-16T21:34:50.352Z,57.58
2023-11-16T21:38:13.801Z,62.17
2023-11-16T21:41:36.560Z,64.05
2023-11-16T21:44:58.787Z,58.17
2023-11-16T21:48:21.288Z,59.85
2023-11-16T21:51:43.628Z,54.47
2023-11-16T21:55:07.753Z,55.80
2023-11-16T21:58:33.185Z,52.53
2023-11-16T22:01:57.452Z,59.30
2023-11-16T22:05:19.560Z,55.67
2023-11-16T22:08:41.726Z,54.00
2023-11-16T22:12:04.955Z,56.25
2023-11-16T22:15:27.796Z,61.83
2023-11-16T22:18:50.043Z,54.95
2023-11-16T22:22:12.763Z,57.03
2023-11-16T22:25:35.287Z,59.25
2023-11-16T22:28:57.347Z,49.97
2023-11-16T22:32:21.771Z,54.75
2023-11-16T22:35:44.001Z,52.85
2023-11-16T22:39:06.466Z,52.85
2023-11-16T22:42:28.985Z,58.25
2023-11-16T22:45:51.044Z,52.88
2023-11-16T22:49:13.361Z,54.40
2023-11-16T22:52:35.892Z,51.03
2023-11-16T22:55:57.920Z,57.97
2023-11-16T22:59:19.915Z,54.15
2023-11-16T23:02:42.158Z,54.03
2023-11-16T23:06:08.231Z,50.92
2023-11-16T23:09:31.748Z,70.35
2023-11-16T23:12:53.945Z,65.38
2023-11-16T23:16:16.233Z,63.17
2023-11-16T23:19:38.682Z,67.07
2023-11-16T23:23:00.779Z,63.50
2023-11-16T23:26:22.999Z,67.10
2023-11-16T23:29:45.215Z,76.70
